Sacramento, California
Traffic Map
Current Weather Conditions
Sacramento, California
Clear Smoke
Clear
59°
Feels Like: 59°
Wind Chill: 59° Ceiling: Unl
Heat Index: 59° Visibility: 1.5mi
Dew Point: 27° Wind: 5mph
Humidity: 29% Direction: 360° (N)
Pressure: 30.24in Gusts: 0mph
Raw Report DataKSAC 142341Z 36004KT 1 1/2SM FU CLR 15/M03 A3024 RMK AO2 T01501028
Traffic Incident Summary
Active as of:
Severity:
Category:
InformationThere was an issue retrieving the traffic information for this location. Please try a different location or try again shortly.
Advertisements